TAF Text Data
IDs:
Format:
Raw Decoded Include METAR

Data at: 0550 UTC 07 Dec 2022

KPSM 070534Z 0706/0806 11009KT P6SM -RA OVC010
  FM070700 10007KT 4SM RA BR OVC006
  FM071800 11004KT 3SM -SHRA BR OVC003
  FM080100 27004KT 1SM -DZ BR OVC003